sensor_id;sensor_type;location;lat;lon;timestamp;P1;durP1;ratioP1;P2;durP2;ratioP2
50709;SDS011;37033;49.994;21.992;2023-03-14T00:02:25;8.00;;;4.00;;
50709;SDS011;37033;49.994;21.992;2023-03-14T00:04:56;5.30;;;3.60;;
50709;SDS011;37033;49.994;21.992;2023-03-14T00:07:26;5.20;;;3.90;;
50709;SDS011;37033;49.994;21.992;2023-03-14T00:10:02;6.10;;;3.80;;
50709;SDS011;37033;49.994;21.992;2023-03-14T00:12:34;6.60;;;3.70;;
50709;SDS011;37033;49.994;21.992;2023-03-14T00:15:06;5.60;;;4.00;;
50709;SDS011;37033;49.994;21.992;2023-03-14T00:17:38;5.40;;;3.70;;
50709;SDS011;37033;49.994;21.992;2023-03-14T00:20:12;4.70;;;3.70;;
50709;SDS011;37033;49.994;21.992;2023-03-14T00:22:43;4.70;;;3.50;;
50709;SDS011;37033;49.994;21.992;2023-03-14T00:25:14;5.10;;;3.70;;
50709;SDS011;37033;49.994;21.992;2023-03-14T00:27:45;5.80;;;4.00;;
50709;SDS011;37033;49.994;21.992;2023-03-14T00:30:16;7.30;;;4.00;;
50709;SDS011;37033;49.994;21.992;2023-03-14T00:32:47;5.00;;;3.50;;
50709;SDS011;37033;49.994;21.992;2023-03-14T00:35:18;4.90;;;3.70;;
50709;SDS011;37033;49.994;21.992;2023-03-14T00:37:49;6.00;;;4.00;;
50709;SDS011;37033;49.994;21.992;2023-03-14T00:40:20;4.70;;;3.80;;
50709;SDS011;37033;49.994;21.992;2023-03-14T00:42:51;6.40;;;3.70;;
50709;SDS011;37033;49.994;21.992;2023-03-14T00:45:22;5.60;;;4.00;;
50709;SDS011;37033;49.994;21.992;2023-03-14T00:47:53;7.40;;;3.40;;
50709;SDS011;37033;49.994;21.992;2023-03-14T00:50:24;5.90;;;3.50;;
50709;SDS011;37033;49.994;21.992;2023-03-14T00:52:55;5.60;;;3.70;;
50709;SDS011;37033;49.994;21.992;2023-03-14T00:55:26;5.40;;;3.70;;
50709;SDS011;37033;49.994;21.992;2023-03-14T00:57:57;5.90;;;3.80;;
50709;SDS011;37033;49.994;21.992;2023-03-14T01:00:28;5.40;;;3.80;;
50709;SDS011;37033;49.994;21.992;2023-03-14T01:02:58;6.00;;;3.20;;
50709;SDS011;37033;49.994;21.992;2023-03-14T01:05:29;5.60;;;3.20;;
50709;SDS011;37033;49.994;21.992;2023-03-14T01:08:00;9.20;;;3.50;;
50709;SDS011;37033;49.994;21.992;2023-03-14T01:10:32;4.30;;;2.80;;
50709;SDS011;37033;49.994;21.992;2023-03-14T01:13:03;5.60;;;3.20;;
50709;SDS011;37033;49.994;21.992;2023-03-14T01:15:34;4.80;;;3.20;;
50709;SDS011;37033;49.994;21.992;2023-03-14T01:18:05;4.60;;;2.90;;
50709;SDS011;37033;49.994;21.992;2023-03-14T01:20:36;4.10;;;2.70;;
50709;SDS011;37033;49.994;21.992;2023-03-14T01:23:07;5.00;;;2.70;;
50709;SDS011;37033;49.994;21.992;2023-03-14T01:25:41;6.10;;;2.50;;
50709;SDS011;37033;49.994;21.992;2023-03-14T01:28:12;4.20;;;2.90;;
50709;SDS011;37033;49.994;21.992;2023-03-14T01:30:43;6.60;;;2.50;;
50709;SDS011;37033;49.994;21.992;2023-03-14T01:33:14;4.40;;;2.90;;
50709;SDS011;37033;49.994;21.992;2023-03-14T01:35:45;4.60;;;3.40;;
50709;SDS011;37033;49.994;21.992;2023-03-14T01:38:18;4.60;;;3.00;;
50709;SDS011;37033;49.994;21.992;2023-03-14T01:40:49;4.00;;;2.70;;
50709;SDS011;37033;49.994;21.992;2023-03-14T01:43:20;2.90;;;2.10;;
50709;SDS011;37033;49.994;21.992;2023-03-14T01:48:52;4.50;;;2.70;;
50709;SDS011;37033;49.994;21.992;2023-03-14T01:51:38;3.50;;;2.10;;
50709;SDS011;37033;49.994;21.992;2023-03-14T01:54:14;3.80;;;2.20;;
50709;SDS011;37033;49.994;21.992;2023-03-14T01:56:50;3.90;;;2.20;;
50709;SDS011;37033;49.994;21.992;2023-03-14T01:59:22;3.90;;;2.50;;
50709;SDS011;37033;49.994;21.992;2023-03-14T02:01:53;4.50;;;2.70;;
50709;SDS011;37033;49.994;21.992;2023-03-14T02:04:25;3.10;;;1.90;;
50709;SDS011;37033;49.994;21.992;2023-03-14T02:07:00;2.50;;;2.20;;
50709;SDS011;37033;49.994;21.992;2023-03-14T02:09:38;3.60;;;2.80;;
50709;SDS011;37033;49.994;21.992;2023-03-14T02:12:10;2.30;;;1.80;;
50709;SDS011;37033;49.994;21.992;2023-03-14T02:14:44;3.30;;;2.30;;
50709;SDS011;37033;49.994;21.992;2023-03-14T02:17:16;3.90;;;2.60;;
50709;SDS011;37033;49.994;21.992;2023-03-14T02:19:55;3.90;;;2.40;;
50709;SDS011;37033;49.994;21.992;2023-03-14T02:22:39;3.30;;;2.50;;
50709;SDS011;37033;49.994;21.992;2023-03-14T02:25:13;3.90;;;2.70;;
50709;SDS011;37033;49.994;21.992;2023-03-14T02:27:49;2.30;;;2.00;;
50709;SDS011;37033;49.994;21.992;2023-03-14T02:30:21;3.40;;;2.80;;
50709;SDS011;37033;49.994;21.992;2023-03-14T02:32:55;4.70;;;2.70;;
50709;SDS011;37033;49.994;21.992;2023-03-14T02:35:32;4.90;;;2.90;;
50709;SDS011;37033;49.994;21.992;2023-03-14T02:38:06;3.90;;;2.10;;
50709;SDS011;37033;49.994;21.992;2023-03-14T02:40:46;4.30;;;2.60;;
50709;SDS011;37033;49.994;21.992;2023-03-14T02:43:17;5.20;;;2.30;;
50709;SDS011;37033;49.994;21.992;2023-03-14T02:45:49;3.70;;;2.40;;
50709;SDS011;37033;49.994;21.992;2023-03-14T02:48:22;3.00;;;2.10;;
50709;SDS011;37033;49.994;21.992;2023-03-14T02:50:56;3.90;;;2.70;;
50709;SDS011;37033;49.994;21.992;2023-03-14T02:53:30;4.00;;;2.10;;
50709;SDS011;37033;49.994;21.992;2023-03-14T02:56:03;3.00;;;2.20;;
50709;SDS011;37033;49.994;21.992;2023-03-14T02:58:35;4.20;;;2.30;;
50709;SDS011;37033;49.994;21.992;2023-03-14T03:01:07;2.70;;;1.60;;
50709;SDS011;37033;49.994;21.992;2023-03-14T03:03:38;2.80;;;1.90;;
50709;SDS011;37033;49.994;21.992;2023-03-14T03:06:09;2.30;;;1.90;;
50709;SDS011;37033;49.994;21.992;2023-03-14T03:08:40;3.80;;;2.20;;
50709;SDS011;37033;49.994;21.992;2023-03-14T03:11:15;2.20;;;1.80;;
50709;SDS011;37033;49.994;21.992;2023-03-14T03:13:46;4.30;;;2.30;;
50709;SDS011;37033;49.994;21.992;2023-03-14T03:16:17;4.20;;;2.50;;
50709;SDS011;37033;49.994;21.992;2023-03-14T03:18:48;3.70;;;2.00;;
50709;SDS011;37033;49.994;21.992;2023-03-14T03:21:19;3.30;;;2.20;;
50709;SDS011;37033;49.994;21.992;2023-03-14T03:23:52;2.80;;;2.10;;
50709;SDS011;37033;49.994;21.992;2023-03-14T03:26:23;3.30;;;2.40;;
50709;SDS011;37033;49.994;21.992;2023-03-14T03:28:54;2.90;;;2.10;;
50709;SDS011;37033;49.994;21.992;2023-03-14T03:31:25;3.20;;;2.30;;
50709;SDS011;37033;49.994;21.992;2023-03-14T03:33:57;3.30;;;2.00;;
50709;SDS011;37033;49.994;21.992;2023-03-14T03:36:28;3.00;;;2.40;;
50709;SDS011;37033;49.994;21.992;2023-03-14T03:38:59;2.80;;;2.30;;
50709;SDS011;37033;49.994;21.992;2023-03-14T03:41:30;2.10;;;1.70;;
50709;SDS011;37033;49.994;21.992;2023-03-14T03:44:02;2.90;;;1.90;;
50709;SDS011;37033;49.994;21.992;2023-03-14T03:46:33;2.70;;;2.10;;
50709;SDS011;37033;49.994;21.992;2023-03-14T03:49:04;3.50;;;1.60;;
50709;SDS011;37033;49.994;21.992;2023-03-14T03:51:35;4.60;;;2.30;;
50709;SDS011;37033;49.994;21.992;2023-03-14T03:54:06;5.00;;;2.00;;
50709;SDS011;37033;49.994;21.992;2023-03-14T03:56:37;2.60;;;1.90;;
50709;SDS011;37033;49.994;21.992;2023-03-14T03:59:08;2.50;;;1.90;;
50709;SDS011;37033;49.994;21.992;2023-03-14T04:01:39;2.60;;;2.00;;
50709;SDS011;37033;49.994;21.992;2023-03-14T04:04:10;2.40;;;1.90;;
50709;SDS011;37033;49.994;21.992;2023-03-14T04:06:41;3.90;;;1.90;;
50709;SDS011;37033;49.994;21.992;2023-03-14T04:09:12;1.70;;;1.50;;
50709;SDS011;37033;49.994;21.992;2023-03-14T04:11:43;3.70;;;2.20;;
50709;SDS011;37033;49.994;21.992;2023-03-14T04:14:14;3.70;;;2.30;;
50709;SDS011;37033;49.994;21.992;2023-03-14T04:16:45;3.40;;;1.90;;
50709;SDS011;37033;49.994;21.992;2023-03-14T04:19:16;4.60;;;2.20;;
50709;SDS011;37033;49.994;21.992;2023-03-14T04:21:47;3.10;;;1.90;;
50709;SDS011;37033;49.994;21.992;2023-03-14T04:24:18;3.50;;;2.30;;
50709;SDS011;37033;49.994;21.992;2023-03-14T04:26:49;3.00;;;1.40;;
50709;SDS011;37033;49.994;21.992;2023-03-14T04:29:20;3.10;;;1.80;;
50709;SDS011;37033;49.994;21.992;2023-03-14T04:31:51;4.60;;;2.50;;
50709;SDS011;37033;49.994;21.992;2023-03-14T04:34:22;3.30;;;2.20;;
50709;SDS011;37033;49.994;21.992;2023-03-14T04:36:53;3.10;;;2.30;;
50709;SDS011;37033;49.994;21.992;2023-03-14T04:39:24;2.50;;;2.00;;
50709;SDS011;37033;49.994;21.992;2023-03-14T04:41:55;3.00;;;2.10;;
50709;SDS011;37033;49.994;21.992;2023-03-14T04:44:26;3.30;;;1.90;;
50709;SDS011;37033;49.994;21.992;2023-03-14T04:46:57;3.00;;;2.00;;
50709;SDS011;37033;49.994;21.992;2023-03-14T04:49:28;8.40;;;5.80;;
50709;SDS011;37033;49.994;21.992;2023-03-14T04:51:59;4.40;;;2.30;;
50709;SDS011;37033;49.994;21.992;2023-03-14T04:54:30;6.90;;;2.40;;
50709;SDS011;37033;49.994;21.992;2023-03-14T04:57:01;5.00;;;3.10;;
50709;SDS011;37033;49.994;21.992;2023-03-14T04:59:32;4.40;;;2.40;;
50709;SDS011;37033;49.994;21.992;2023-03-14T05:02:03;2.80;;;2.10;;
50709;SDS011;37033;49.994;21.992;2023-03-14T05:04:38;2.70;;;2.10;;
50709;SDS011;37033;49.994;21.992;2023-03-14T05:07:11;2.50;;;1.70;;
50709;SDS011;37033;49.994;21.992;2023-03-14T05:09:43;2.60;;;2.20;;
50709;SDS011;37033;49.994;21.992;2023-03-14T05:12:13;3.10;;;2.10;;
50709;SDS011;37033;49.994;21.992;2023-03-14T05:14:44;2.80;;;2.10;;
50709;SDS011;37033;49.994;21.992;2023-03-14T05:17:15;2.40;;;1.80;;
50709;SDS011;37033;49.994;21.992;2023-03-14T05:19:46;5.00;;;2.20;;
50709;SDS011;37033;49.994;21.992;2023-03-14T05:22:17;3.30;;;2.20;;
50709;SDS011;37033;49.994;21.992;2023-03-14T05:24:48;3.30;;;2.40;;
50709;SDS011;37033;49.994;21.992;2023-03-14T05:27:21;3.80;;;2.90;;
50709;SDS011;37033;49.994;21.992;2023-03-14T05:29:55;5.00;;;3.80;;
50709;SDS011;37033;49.994;21.992;2023-03-14T05:32:26;3.10;;;2.30;;
50709;SDS011;37033;49.994;21.992;2023-03-14T05:34:57;3.90;;;2.10;;
50709;SDS011;37033;49.994;21.992;2023-03-14T05:37:31;8.70;;;4.80;;
50709;SDS011;37033;49.994;21.992;2023-03-14T05:40:06;4.20;;;2.90;;
50709;SDS011;37033;49.994;21.992;2023-03-14T05:42:38;4.50;;;3.00;;
50709;SDS011;37033;49.994;21.992;2023-03-14T05:45:12;2.60;;;1.90;;
50709;SDS011;37033;49.994;21.992;2023-03-14T05:47:43;2.70;;;1.90;;
50709;SDS011;37033;49.994;21.992;2023-03-14T05:50:13;4.30;;;2.10;;
50709;SDS011;37033;49.994;21.992;2023-03-14T05:52:47;2.60;;;1.80;;
50709;SDS011;37033;49.994;21.992;2023-03-14T05:55:18;2.70;;;2.00;;
50709;SDS011;37033;49.994;21.992;2023-03-14T05:57:49;3.40;;;2.10;;
50709;SDS011;37033;49.994;21.992;2023-03-14T06:00:22;3.00;;;2.40;;
50709;SDS011;37033;49.994;21.992;2023-03-14T06:02:53;3.60;;;2.10;;
50709;SDS011;37033;49.994;21.992;2023-03-14T06:05:24;3.20;;;2.10;;
50709;SDS011;37033;49.994;21.992;2023-03-14T06:07:55;3.50;;;2.30;;
50709;SDS011;37033;49.994;21.992;2023-03-14T06:10:26;3.20;;;2.40;;
50709;SDS011;37033;49.994;21.992;2023-03-14T06:12:58;4.20;;;1.80;;
50709;SDS011;37033;49.994;21.992;2023-03-14T06:15:29;5.70;;;2.30;;
50709;SDS011;37033;49.994;21.992;2023-03-14T06:18:00;2.60;;;1.90;;
50709;SDS011;37033;49.994;21.992;2023-03-14T06:20:31;3.80;;;2.30;;
50709;SDS011;37033;49.994;21.992;2023-03-14T06:23:04;2.90;;;2.30;;
50709;SDS011;37033;49.994;21.992;2023-03-14T06:25:36;3.00;;;2.20;;
50709;SDS011;37033;49.994;21.992;2023-03-14T06:28:07;2.40;;;2.20;;
50709;SDS011;37033;49.994;21.992;2023-03-14T06:30:38;4.20;;;3.10;;
50709;SDS011;37033;49.994;21.992;2023-03-14T06:33:09;6.10;;;1.90;;
50709;SDS011;37033;49.994;21.992;2023-03-14T06:35:40;3.10;;;2.40;;
50709;SDS011;37033;49.994;21.992;2023-03-14T06:38:11;3.20;;;2.30;;
50709;SDS011;37033;49.994;21.992;2023-03-14T06:40:42;3.20;;;2.50;;
50709;SDS011;37033;49.994;21.992;2023-03-14T06:43:13;2.10;;;1.60;;
50709;SDS011;37033;49.994;21.992;2023-03-14T06:45:43;3.60;;;1.90;;
50709;SDS011;37033;49.994;21.992;2023-03-14T06:48:15;3.20;;;2.00;;
50709;SDS011;37033;49.994;21.992;2023-03-14T06:50:46;4.10;;;2.50;;
50709;SDS011;37033;49.994;21.992;2023-03-14T06:53:18;3.60;;;1.90;;
50709;SDS011;37033;49.994;21.992;2023-03-14T06:55:49;2.80;;;2.00;;
50709;SDS011;37033;49.994;21.992;2023-03-14T06:58:20;2.60;;;1.60;;
50709;SDS011;37033;49.994;21.992;2023-03-14T07:00:51;2.70;;;1.70;;
50709;SDS011;37033;49.994;21.992;2023-03-14T07:03:22;3.30;;;1.90;;
50709;SDS011;37033;49.994;21.992;2023-03-14T07:05:53;4.40;;;2.00;;
50709;SDS011;37033;49.994;21.992;2023-03-14T07:08:26;4.00;;;1.70;;
50709;SDS011;37033;49.994;21.992;2023-03-14T07:10:57;2.60;;;1.70;;
50709;SDS011;37033;49.994;21.992;2023-03-14T07:13:28;4.70;;;1.90;;
50709;SDS011;37033;49.994;21.992;2023-03-14T07:16:02;2.40;;;1.40;;
50709;SDS011;37033;49.994;21.992;2023-03-14T07:18:34;3.60;;;1.60;;
50709;SDS011;37033;49.994;21.992;2023-03-14T07:21:06;2.50;;;1.70;;
50709;SDS011;37033;49.994;21.992;2023-03-14T07:23:38;3.70;;;1.80;;
50709;SDS011;37033;49.994;21.992;2023-03-14T07:26:09;4.00;;;2.20;;
50709;SDS011;37033;49.994;21.992;2023-03-14T07:28:40;4.90;;;2.10;;
50709;SDS011;37033;49.994;21.992;2023-03-14T07:31:11;2.80;;;1.90;;
50709;SDS011;37033;49.994;21.992;2023-03-14T07:33:42;3.10;;;1.80;;
50709;SDS011;37033;49.994;21.992;2023-03-14T07:36:13;4.30;;;2.10;;
50709;SDS011;37033;49.994;21.992;2023-03-14T07:38:45;3.00;;;1.70;;
50709;SDS011;37033;49.994;21.992;2023-03-14T07:41:16;3.40;;;1.90;;
50709;SDS011;37033;49.994;21.992;2023-03-14T07:43:48;5.50;;;2.40;;
50709;SDS011;37033;49.994;21.992;2023-03-14T07:46:19;2.70;;;1.70;;
50709;SDS011;37033;49.994;21.992;2023-03-14T07:48:50;4.40;;;2.10;;
50709;SDS011;37033;49.994;21.992;2023-03-14T07:51:21;1.80;;;1.60;;
50709;SDS011;37033;49.994;21.992;2023-03-14T07:53:51;5.00;;;2.00;;
50709;SDS011;37033;49.994;21.992;2023-03-14T07:56:23;2.60;;;1.80;;
50709;SDS011;37033;49.994;21.992;2023-03-14T07:58:54;2.80;;;1.50;;
50709;SDS011;37033;49.994;21.992;2023-03-14T08:01:25;5.70;;;2.20;;
50709;SDS011;37033;49.994;21.992;2023-03-14T08:03:56;4.70;;;2.10;;
50709;SDS011;37033;49.994;21.992;2023-03-14T08:06:27;4.20;;;2.00;;
50709;SDS011;37033;49.994;21.992;2023-03-14T08:08:58;2.90;;;1.80;;
50709;SDS011;37033;49.994;21.992;2023-03-14T08:11:29;2.70;;;1.50;;
50709;SDS011;37033;49.994;21.992;2023-03-14T08:14:00;2.80;;;1.60;;
50709;SDS011;37033;49.994;21.992;2023-03-14T08:16:31;3.10;;;1.80;;
50709;SDS011;37033;49.994;21.992;2023-03-14T08:19:02;2.40;;;1.50;;
50709;SDS011;37033;49.994;21.992;2023-03-14T08:21:33;3.20;;;1.90;;
50709;SDS011;37033;49.994;21.992;2023-03-14T08:24:04;2.70;;;1.80;;
50709;SDS011;37033;49.994;21.992;2023-03-14T08:26:36;3.40;;;2.10;;
50709;SDS011;37033;49.994;21.992;2023-03-14T08:29:07;1.90;;;1.50;;
50709;SDS011;37033;49.994;21.992;2023-03-14T08:31:38;4.00;;;1.80;;
50709;SDS011;37033;49.994;21.992;2023-03-14T08:34:09;2.60;;;1.60;;
50709;SDS011;37033;49.994;21.992;2023-03-14T08:36:40;2.50;;;1.60;;
50709;SDS011;37033;49.994;21.992;2023-03-14T08:39:11;3.50;;;1.80;;
50709;SDS011;37033;49.994;21.992;2023-03-14T08:41:47;4.30;;;1.50;;
50709;SDS011;37033;49.994;21.992;2023-03-14T08:44:20;3.50;;;1.80;;
50709;SDS011;37033;49.994;21.992;2023-03-14T08:46:51;3.00;;;1.80;;
50709;SDS011;37033;49.994;21.992;2023-03-14T08:49:21;3.20;;;1.40;;
50709;SDS011;37033;49.994;21.992;2023-03-14T08:51:52;6.60;;;1.60;;
50709;SDS011;37033;49.994;21.992;2023-03-14T08:54:23;2.60;;;1.70;;
50709;SDS011;37033;49.994;21.992;2023-03-14T08:56:54;2.40;;;1.70;;
50709;SDS011;37033;49.994;21.992;2023-03-14T08:59:28;3.30;;;1.70;;
50709;SDS011;37033;49.994;21.992;2023-03-14T09:01:59;2.40;;;1.60;;
50709;SDS011;37033;49.994;21.992;2023-03-14T09:04:31;4.20;;;1.70;;
50709;SDS011;37033;49.994;21.992;2023-03-14T09:07:02;2.60;;;2.00;;
50709;SDS011;37033;49.994;21.992;2023-03-14T09:09:33;3.40;;;1.60;;
50709;SDS011;37033;49.994;21.992;2023-03-14T09:12:05;5.20;;;2.10;;
50709;SDS011;37033;49.994;21.992;2023-03-14T09:14:36;5.50;;;1.90;;
50709;SDS011;37033;49.994;21.992;2023-03-14T09:17:07;4.50;;;1.80;;
50709;SDS011;37033;49.994;21.992;2023-03-14T09:19:38;2.30;;;1.50;;
50709;SDS011;37033;49.994;21.992;2023-03-14T09:22:09;2.80;;;1.70;;
50709;SDS011;37033;49.994;21.992;2023-03-14T09:24:41;2.80;;;1.70;;
50709;SDS011;37033;49.994;21.992;2023-03-14T09:27:12;7.20;;;2.40;;
50709;SDS011;37033;49.994;21.992;2023-03-14T09:29:43;2.70;;;2.10;;
50709;SDS011;37033;49.994;21.992;2023-03-14T09:32:13;3.40;;;2.00;;
50709;SDS011;37033;49.994;21.992;2023-03-14T09:34:44;2.60;;;1.60;;
50709;SDS011;37033;49.994;21.992;2023-03-14T09:37:15;2.80;;;1.70;;
50709;SDS011;37033;49.994;21.992;2023-03-14T09:39:47;2.40;;;1.60;;
50709;SDS011;37033;49.994;21.992;2023-03-14T09:42:20;7.70;;;3.10;;
50709;SDS011;37033;49.994;21.992;2023-03-14T09:44:56;2.60;;;1.60;;
50709;SDS011;37033;49.994;21.992;2023-03-14T09:47:29;5.00;;;1.80;;
50709;SDS011;37033;49.994;21.992;2023-03-14T09:50:03;2.70;;;1.60;;
50709;SDS011;37033;49.994;21.992;2023-03-14T09:52:39;3.40;;;1.70;;
50709;SDS011;37033;49.994;21.992;2023-03-14T09:55:14;5.10;;;2.20;;
50709;SDS011;37033;49.994;21.992;2023-03-14T09:57:49;4.60;;;1.90;;
50709;SDS011;37033;49.994;21.992;2023-03-14T10:00:26;2.50;;;1.40;;
50709;SDS011;37033;49.994;21.992;2023-03-14T10:03:00;2.70;;;1.70;;
50709;SDS011;37033;49.994;21.992;2023-03-14T10:05:54;2.40;;;1.70;;
50709;SDS011;37033;49.994;21.992;2023-03-14T10:08:25;3.80;;;1.80;;
50709;SDS011;37033;49.994;21.992;2023-03-14T10:10:56;2.50;;;1.90;;
50709;SDS011;37033;49.994;21.992;2023-03-14T10:13:30;8.10;;;1.60;;
50709;SDS011;37033;49.994;21.992;2023-03-14T10:16:01;3.00;;;1.60;;
50709;SDS011;37033;49.994;21.992;2023-03-14T10:18:39;3.40;;;2.00;;
50709;SDS011;37033;49.994;21.992;2023-03-14T10:21:21;4.00;;;1.70;;
50709;SDS011;37033;49.994;21.992;2023-03-14T10:24:08;3.00;;;2.10;;
50709;SDS011;37033;49.994;21.992;2023-03-14T10:26:49;3.90;;;2.10;;
50709;SDS011;37033;49.994;21.992;2023-03-14T10:29:26;2.40;;;1.70;;
50709;SDS011;37033;49.994;21.992;2023-03-14T10:31:59;2.60;;;1.90;;
50709;SDS011;37033;49.994;21.992;2023-03-14T10:34:33;2.70;;;1.50;;
50709;SDS011;37033;49.994;21.992;2023-03-14T10:37:07;3.40;;;2.10;;
50709;SDS011;37033;49.994;21.992;2023-03-14T10:39:49;3.00;;;2.10;;
50709;SDS011;37033;49.994;21.992;2023-03-14T10:42:25;3.10;;;2.10;;
50709;SDS011;37033;49.994;21.992;2023-03-14T10:47:30;3.20;;;1.70;;
50709;SDS011;37033;49.994;21.992;2023-03-14T10:52:53;2.80;;;1.80;;
50709;SDS011;37033;49.994;21.992;2023-03-14T10:55:25;3.40;;;1.90;;
50709;SDS011;37033;49.994;21.992;2023-03-14T10:57:57;3.80;;;2.40;;
50709;SDS011;37033;49.994;21.992;2023-03-14T11:00:30;3.60;;;2.10;;
50709;SDS011;37033;49.994;21.992;2023-03-14T11:03:06;3.40;;;2.00;;
50709;SDS011;37033;49.994;21.992;2023-03-14T11:05:42;5.10;;;2.20;;
50709;SDS011;37033;49.994;21.992;2023-03-14T11:08:18;2.60;;;1.70;;
50709;SDS011;37033;49.994;21.992;2023-03-14T11:11:01;2.30;;;1.70;;
50709;SDS011;37033;49.994;21.992;2023-03-14T11:13:45;4.80;;;2.10;;
50709;SDS011;37033;49.994;21.992;2023-03-14T11:16:32;2.90;;;1.90;;
50709;SDS011;37033;49.994;21.992;2023-03-14T11:19:21;2.70;;;1.70;;
50709;SDS011;37033;49.994;21.992;2023-03-14T11:22:17;8.90;;;1.70;;
50709;SDS011;37033;49.994;21.992;2023-03-14T11:25:02;3.50;;;2.20;;
50709;SDS011;37033;49.994;21.992;2023-03-14T11:27:51;4.30;;;1.90;;
50709;SDS011;37033;49.994;21.992;2023-03-14T11:30:39;3.60;;;2.10;;
50709;SDS011;37033;49.994;21.992;2023-03-14T11:33:17;2.70;;;1.90;;
50709;SDS011;37033;49.994;21.992;2023-03-14T11:35:55;3.60;;;1.70;;
50709;SDS011;37033;49.994;21.992;2023-03-14T11:38:37;2.70;;;1.90;;
50709;SDS011;37033;49.994;21.992;2023-03-14T11:41:14;2.90;;;1.90;;
50709;SDS011;37033;49.994;21.992;2023-03-14T11:43:48;4.00;;;2.00;;
50709;SDS011;37033;49.994;21.992;2023-03-14T11:46:24;4.30;;;1.70;;
50709;SDS011;37033;49.994;21.992;2023-03-14T11:49:05;2.90;;;2.10;;
50709;SDS011;37033;49.994;21.992;2023-03-14T11:51:43;6.00;;;2.10;;
50709;SDS011;37033;49.994;21.992;2023-03-14T11:54:16;3.10;;;2.10;;
50709;SDS011;37033;49.994;21.992;2023-03-14T11:56:53;5.10;;;1.70;;
50709;SDS011;37033;49.994;21.992;2023-03-14T11:59:28;2.70;;;1.70;;
50709;SDS011;37033;49.994;21.992;2023-03-14T12:02:16;3.40;;;2.10;;
50709;SDS011;37033;49.994;21.992;2023-03-14T12:04:53;4.40;;;2.20;;
50709;SDS011;37033;49.994;21.992;2023-03-14T12:07:35;2.50;;;1.80;;
50709;SDS011;37033;49.994;21.992;2023-03-14T12:10:22;2.60;;;2.00;;
50709;SDS011;37033;49.994;21.992;2023-03-14T12:12:53;5.70;;;2.10;;
50709;SDS011;37033;49.994;21.992;2023-03-14T12:15:25;2.10;;;1.70;;
50709;SDS011;37033;49.994;21.992;2023-03-14T12:17:57;2.10;;;1.50;;
50709;SDS011;37033;49.994;21.992;2023-03-14T12:20:28;4.30;;;2.10;;
50709;SDS011;37033;49.994;21.992;2023-03-14T12:23:03;5.60;;;2.10;;
50709;SDS011;37033;49.994;21.992;2023-03-14T12:25:39;3.80;;;2.00;;
50709;SDS011;37033;49.994;21.992;2023-03-14T12:28:19;2.50;;;1.70;;
50709;SDS011;37033;49.994;21.992;2023-03-14T12:34:02;2.90;;;1.70;;
50709;SDS011;37033;49.994;21.992;2023-03-14T12:36:55;3.70;;;1.90;;
50709;SDS011;37033;49.994;21.992;2023-03-14T12:39:35;6.50;;;2.20;;
50709;SDS011;37033;49.994;21.992;2023-03-14T12:42:14;6.90;;;2.20;;
50709;SDS011;37033;49.994;21.992;2023-03-14T12:44:50;2.20;;;1.70;;
50709;SDS011;37033;49.994;21.992;2023-03-14T12:50:25;4.80;;;2.70;;
50709;SDS011;37033;49.994;21.992;2023-03-14T12:53:07;3.00;;;1.50;;
50709;SDS011;37033;49.994;21.992;2023-03-14T12:56:00;2.70;;;1.90;;
50709;SDS011;37033;49.994;21.992;2023-03-14T12:58:37;3.00;;;2.00;;
50709;SDS011;37033;49.994;21.992;2023-03-14T13:01:16;2.60;;;1.80;;
50709;SDS011;37033;49.994;21.992;2023-03-14T13:03:49;2.70;;;1.80;;
50709;SDS011;37033;49.994;21.992;2023-03-14T13:12:29;3.60;;;2.10;;
50709;SDS011;37033;49.994;21.992;2023-03-14T13:15:15;5.10;;;2.20;;
50709;SDS011;37033;49.994;21.992;2023-03-14T13:17:49;3.20;;;2.20;;
50709;SDS011;37033;49.994;21.992;2023-03-14T13:20:24;4.70;;;2.40;;
50709;SDS011;37033;49.994;21.992;2023-03-14T13:23:00;3.80;;;2.10;;
50709;SDS011;37033;49.994;21.992;2023-03-14T13:25:34;2.80;;;1.90;;
50709;SDS011;37033;49.994;21.992;2023-03-14T13:28:08;3.60;;;2.30;;
50709;SDS011;37033;49.994;21.992;2023-03-14T13:30:47;4.30;;;2.10;;
50709;SDS011;37033;49.994;21.992;2023-03-14T13:33:23;3.60;;;2.00;;
50709;SDS011;37033;49.994;21.992;2023-03-14T13:35:57;3.40;;;2.20;;
50709;SDS011;37033;49.994;21.992;2023-03-14T13:38:31;4.10;;;2.20;;
50709;SDS011;37033;49.994;21.992;2023-03-14T13:41:05;3.70;;;2.10;;
50709;SDS011;37033;49.994;21.992;2023-03-14T13:43:40;3.90;;;2.50;;
50709;SDS011;37033;49.994;21.992;2023-03-14T13:46:13;4.30;;;2.20;;
50709;SDS011;37033;49.994;21.992;2023-03-14T13:48:46;4.50;;;2.60;;
50709;SDS011;37033;49.994;21.992;2023-03-14T13:51:19;3.60;;;2.60;;
50709;SDS011;37033;49.994;21.992;2023-03-14T13:53:53;3.30;;;2.00;;
50709;SDS011;37033;49.994;21.992;2023-03-14T13:56:25;3.60;;;2.30;;
50709;SDS011;37033;49.994;21.992;2023-03-14T13:58:57;6.80;;;2.40;;
50709;SDS011;37033;49.994;21.992;2023-03-14T14:01:29;3.70;;;2.20;;
50709;SDS011;37033;49.994;21.992;2023-03-14T14:04:06;5.50;;;2.60;;
50709;SDS011;37033;49.994;21.992;2023-03-14T14:06:38;4.40;;;2.30;;
50709;SDS011;37033;49.994;21.992;2023-03-14T14:09:17;6.00;;;2.60;;
50709;SDS011;37033;49.994;21.992;2023-03-14T14:11:53;4.70;;;2.60;;
50709;SDS011;37033;49.994;21.992;2023-03-14T14:14:28;4.10;;;2.50;;
50709;SDS011;37033;49.994;21.992;2023-03-14T14:17:03;4.40;;;2.40;;
50709;SDS011;37033;49.994;21.992;2023-03-14T14:19:37;4.70;;;2.70;;
50709;SDS011;37033;49.994;21.992;2023-03-14T14:22:10;3.70;;;2.30;;
50709;SDS011;37033;49.994;21.992;2023-03-14T14:24:41;4.30;;;2.60;;
50709;SDS011;37033;49.994;21.992;2023-03-14T14:27:14;5.90;;;2.90;;
50709;SDS011;37033;49.994;21.992;2023-03-14T14:30:01;7.30;;;2.50;;
50709;SDS011;37033;49.994;21.992;2023-03-14T14:32:37;4.00;;;2.80;;
50709;SDS011;37033;49.994;21.992;2023-03-14T14:35:10;5.20;;;3.20;;
50709;SDS011;37033;49.994;21.992;2023-03-14T14:37:53;3.20;;;2.40;;
50709;SDS011;37033;49.994;21.992;2023-03-14T14:40:25;4.80;;;2.10;;
50709;SDS011;37033;49.994;21.992;2023-03-14T14:43:01;2.90;;;2.60;;
50709;SDS011;37033;49.994;21.992;2023-03-14T14:45:34;3.40;;;2.60;;
50709;SDS011;37033;49.994;21.992;2023-03-14T14:48:06;5.50;;;3.50;;
50709;SDS011;37033;49.994;21.992;2023-03-14T14:53:22;4.30;;;3.30;;
50709;SDS011;37033;49.994;21.992;2023-03-14T14:55:56;5.20;;;2.50;;
50709;SDS011;37033;49.994;21.992;2023-03-14T14:58:29;4.60;;;2.80;;
50709;SDS011;37033;49.994;21.992;2023-03-14T15:01:07;4.70;;;2.30;;
50709;SDS011;37033;49.994;21.992;2023-03-14T15:03:43;3.70;;;2.50;;
50709;SDS011;37033;49.994;21.992;2023-03-14T15:06:15;4.20;;;2.90;;
50709;SDS011;37033;49.994;21.992;2023-03-14T15:08:47;4.30;;;2.80;;
50709;SDS011;37033;49.994;21.992;2023-03-14T15:11:19;6.30;;;3.60;;
50709;SDS011;37033;49.994;21.992;2023-03-14T15:13:51;5.50;;;3.40;;
50709;SDS011;37033;49.994;21.992;2023-03-14T15:16:25;3.00;;;2.60;;
50709;SDS011;37033;49.994;21.992;2023-03-14T15:18:59;6.30;;;3.30;;
50709;SDS011;37033;49.994;21.992;2023-03-14T15:21:33;4.50;;;2.90;;
50709;SDS011;37033;49.994;21.992;2023-03-14T15:24:05;5.60;;;3.30;;
50709;SDS011;37033;49.994;21.992;2023-03-14T15:26:37;4.80;;;3.20;;
50709;SDS011;37033;49.994;21.992;2023-03-14T15:29:11;4.70;;;3.40;;
50709;SDS011;37033;49.994;21.992;2023-03-14T15:31:42;3.80;;;3.20;;
50709;SDS011;37033;49.994;21.992;2023-03-14T15:34:13;4.60;;;3.30;;